Seward Airport
PAWD : now visible

Aeroporto :











RITROVATECI SU...

 
LOGIN :

Iscrizione | Disclaimer

   EN    FR    IT 

 









Sommario :    VFR   VFR Marginale   IFR   IFR Intensivo   IFR Molto Intensivo
Visibilità : 
Base nubi : 
>= 8 km
>= 3000ft
5 / 8 km
1000 / 3000 ft
1500m / 5 km
500 / 1000 ft
800 / 1500m
200 / 500 ft
< 800m
< 200 ft
Simboli :   Temporali  Nebbia  Neve Forte  Precipitazioni Forti  Vento > 20 kt






- Altitudine del aeroporto : 22 ft
- Codice IATA : SWD


PAWD - Seward

ULTIMO METAR :
  • 011953Z AUTO 18007KT 10SM -RA BKN050 OVC060 11/08 A2960 RMK AO2 RAB14 SLP023 P0000 T01060078 TSNO

METARs OBSOLETI :
  • 011853Z AUTO 18004KT 10SM OVC060 11/07 A2959 RMK AO2 RAB08E26 SLP021 P0000 T01110067 TSNO
  • 011753Z AUTO 15003KT 10SM SCT050 OVC060 11/07 A2960 RMK AO2 SLP024 60001 T01060072 10106 20072 55003 TSNO

TAF N/A
FIR PAZA / America del Nord



MetMap, La meteo Aeronautica in un colpo d'occhio ! - Copyright ORBIFLY Dicembre 2007 - Disclaimer

ORBIFLY MET'MAP TEAM :

Programmazione e sviluppo : Alexandra Zaïnal
Concezione : Baudouin d'Aumeries
Aiuto per la programmazione : Marc-Olivier Méhu
Supporto tecnico e logistico : Manuel Goepfert
Aiuto per la traduzione : Arnaldo La Scala

Contatto : metmap@orbifly.com




FONTI E CREDITI :

   NOAA       Earth
Advisory